createdAt,value
2022-12-11T00:00:15.855Z,5.98
2022-12-11T00:02:45.237Z,6.00
2022-12-11T00:05:12.415Z,5.99
2022-12-11T00:07:39.504Z,5.98
2022-12-11T00:10:08.060Z,6.00
2022-12-11T00:12:35.054Z,6.04
2022-12-11T00:15:02.054Z,6.04
2022-12-11T00:17:29.255Z,6.01
2022-12-11T00:19:57.483Z,6.01
2022-12-11T00:22:24.461Z,6.04
2022-12-11T00:24:52.057Z,6.07
2022-12-11T00:27:19.157Z,5.81
2022-12-11T00:29:46.147Z,5.72
2022-12-11T00:32:13.138Z,5.75
2022-12-11T00:34:40.278Z,5.79
2022-12-11T00:37:08.858Z,5.79
2022-12-11T00:39:37.169Z,5.69
2022-12-11T00:42:04.525Z,5.71
2022-12-11T00:44:31.531Z,5.78
2022-12-11T00:46:58.523Z,5.81
2022-12-11T00:49:25.470Z,5.89
2022-12-11T00:51:52.519Z,5.99
2022-12-11T00:54:20.836Z,6.07
2022-12-11T00:56:47.767Z,6.15
2022-12-11T00:59:16.100Z,6.26
2022-12-11T01:01:43.106Z,6.24
2022-12-11T01:04:10.031Z,6.13
2022-12-11T01:06:37.043Z,6.03
2022-12-11T01:09:23.026Z,5.90
2022-12-11T01:11:52.091Z,5.86
2022-12-11T01:14:19.325Z,5.82
2022-12-11T01:16:46.524Z,5.86
2022-12-11T01:19:13.535Z,5.85
2022-12-11T01:21:41.097Z,5.92
2022-12-11T01:24:08.177Z,6.02
2022-12-11T01:26:36.705Z,6.09
2022-12-11T01:29:05.059Z,6.12
2022-12-11T01:31:33.075Z,6.11
2022-12-11T01:34:00.122Z,6.09
2022-12-11T01:36:27.122Z,6.09
2022-12-11T01:38:54.409Z,6.11
2022-12-11T01:41:22.812Z,6.07
2022-12-11T01:44:03.170Z,5.98
2022-12-11T01:46:34.729Z,5.84
2022-12-11T01:49:06.239Z,5.81
2022-12-11T01:51:41.321Z,5.76
2022-12-11T01:54:13.418Z,5.79
2022-12-11T01:56:43.608Z,5.85
2022-12-11T01:59:14.252Z,5.85
2022-12-11T02:01:50.943Z,5.89
2022-12-11T02:04:20.043Z,5.89
2022-12-11T02:06:50.796Z,5.82
2022-12-11T02:09:22.137Z,5.78
2022-12-11T02:12:03.397Z,5.72
2022-12-11T02:14:39.579Z,5.72
2022-12-11T02:17:17.039Z,5.67
2022-12-11T02:20:01.503Z,5.66
2022-12-11T02:23:06.421Z,5.53
2022-12-11T02:25:46.798Z,5.42
2022-12-11T02:28:22.172Z,5.42
2022-12-11T02:30:55.189Z,5.29
2022-12-11T02:33:32.206Z,5.35
2022-12-11T02:36:02.453Z,5.45
2022-12-11T02:38:35.687Z,5.51
2022-12-11T02:41:05.459Z,5.57
2022-12-11T02:43:36.715Z,5.67
2022-12-11T02:46:07.667Z,5.65
2022-12-11T02:48:37.098Z,5.69
2022-12-11T02:51:07.615Z,5.75
2022-12-11T02:53:40.806Z,5.76
2022-12-11T02:56:12.916Z,5.82
2022-12-11T02:58:52.631Z,5.77
2022-12-11T03:01:22.530Z,5.70
2022-12-11T03:03:49.655Z,5.66
2022-12-11T03:06:21.878Z,5.58
2022-12-11T03:08:51.758Z,5.53
2022-12-11T03:11:18.703Z,5.46
2022-12-11T03:13:47.050Z,5.46
2022-12-11T03:16:24.150Z,5.51
2022-12-11T03:19:06.467Z,5.62
2022-12-11T03:21:43.877Z,5.75
2022-12-11T03:24:19.166Z,5.83
2022-12-11T03:26:56.685Z,5.82
2022-12-11T03:29:32.773Z,5.83
2022-12-11T03:32:08.739Z,5.81
2022-12-11T03:34:44.991Z,5.78
2022-12-11T03:37:14.805Z,5.83
2022-12-11T03:39:48.719Z,5.79
2022-12-11T03:42:18.849Z,5.71
2022-12-11T03:44:51.148Z,5.68
2022-12-11T03:47:23.902Z,5.67
2022-12-11T03:49:54.418Z,5.69
2022-12-11T03:52:22.851Z,5.68
2022-12-11T03:54:51.218Z,5.68
2022-12-11T03:57:24.880Z,5.68
2022-12-11T03:59:53.328Z,5.61
2022-12-11T04:02:20.631Z,5.47
2022-12-11T04:04:47.603Z,5.34
2022-12-11T04:07:15.633Z,5.39
2022-12-11T04:09:42.619Z,5.38
2022-12-11T04:12:09.600Z,5.44
2022-12-11T04:14:55.292Z,5.49
2022-12-11T04:17:42.054Z,5.47
2022-12-11T04:20:29.850Z,5.46
2022-12-11T04:23:15.372Z,5.53
2022-12-11T04:25:42.545Z,5.56
2022-12-11T04:28:09.643Z,5.52
2022-12-11T04:30:36.642Z,5.58
2022-12-11T04:33:05.020Z,5.61
2022-12-11T04:35:32.580Z,5.60
2022-12-11T04:37:59.643Z,5.58
2022-12-11T04:40:26.851Z,5.58
2022-12-11T04:42:53.886Z,5.55
2022-12-11T04:45:20.965Z,5.55
2022-12-11T04:47:49.673Z,5.57
2022-12-11T04:50:18.181Z,5.51
2022-12-11T04:52:45.350Z,5.51
2022-12-11T04:55:13.525Z,5.58
2022-12-11T04:57:41.122Z,5.65
2022-12-11T05:00:13.085Z,5.72
2022-12-11T05:02:42.091Z,5.75
2022-12-11T05:05:11.537Z,5.78
2022-12-11T05:07:41.902Z,5.81
2022-12-11T05:10:10.134Z,5.83
2022-12-11T05:12:37.290Z,5.80
2022-12-11T05:15:04.944Z,5.76
2022-12-11T05:17:31.891Z,5.73
2022-12-11T05:19:58.867Z,5.76
2022-12-11T05:22:25.821Z,5.81
2022-12-11T05:24:54.171Z,5.85
2022-12-11T05:27:21.128Z,5.83
2022-12-11T05:29:48.084Z,5.82
2022-12-11T05:32:15.063Z,5.74
2022-12-11T05:34:41.989Z,5.67
2022-12-11T05:37:08.995Z,5.67
2022-12-11T05:39:36.030Z,5.63
2022-12-11T05:42:04.867Z,5.59
2022-12-11T05:44:31.969Z,5.58
2022-12-11T05:46:59.246Z,5.62
2022-12-11T05:49:30.844Z,5.65
2022-12-11T05:51:58.194Z,5.68
2022-12-11T05:54:25.443Z,5.60
2022-12-11T05:56:52.356Z,5.61
2022-12-11T05:59:20.781Z,5.64
2022-12-11T06:01:48.049Z,5.69
2022-12-11T06:04:15.234Z,5.72
2022-12-11T06:06:43.649Z,5.69
2022-12-11T06:09:14.765Z,5.71
2022-12-11T06:11:42.574Z,5.79
2022-12-11T06:14:11.723Z,5.84
2022-12-11T06:16:40.097Z,5.82
2022-12-11T06:19:07.295Z,5.80
2022-12-11T06:21:34.395Z,5.81
2022-12-11T06:24:04.022Z,5.81
2022-12-11T06:26:31.992Z,5.80
2022-12-11T06:28:59.037Z,5.81
2022-12-11T06:31:26.104Z,5.82
2022-12-11T06:33:54.485Z,5.84
2022-12-11T06:36:24.324Z,5.74
2022-12-11T06:38:52.654Z,5.49
2022-12-11T06:41:19.746Z,5.36
2022-12-11T06:43:46.846Z,5.22
2022-12-11T06:46:17.220Z,5.24
2022-12-11T06:48:44.937Z,5.24
2022-12-11T06:51:16.954Z,5.24
2022-12-11T06:53:44.410Z,5.23
2022-12-11T06:56:15.050Z,5.16
2022-12-11T06:58:43.939Z,5.11
2022-12-11T07:01:20.301Z,5.15
2022-12-11T07:03:47.456Z,5.20
2022-12-11T07:06:16.547Z,5.25
2022-12-11T07:08:43.650Z,5.31
2022-12-11T07:11:13.451Z,5.38
2022-12-11T07:13:42.037Z,5.46
2022-12-11T07:16:11.881Z,5.53
2022-12-11T07:18:40.302Z,5.56
2022-12-11T07:21:09.363Z,5.60
2022-12-11T07:23:38.200Z,5.64
2022-12-11T07:26:06.500Z,5.64
2022-12-11T07:28:34.376Z,5.66
2022-12-11T07:31:06.082Z,5.65
2022-12-11T07:33:33.350Z,5.65
2022-12-11T07:36:02.751Z,5.63
2022-12-11T07:38:29.836Z,5.61
2022-12-11T07:41:01.558Z,5.62
2022-12-11T07:43:28.508Z,5.65
2022-12-11T07:45:55.554Z,5.62
2022-12-11T07:48:22.543Z,5.56
2022-12-11T07:50:49.511Z,5.51
2022-12-11T07:53:16.447Z,5.46
2022-12-11T07:55:43.371Z,5.40
2022-12-11T07:58:11.687Z,5.39
2022-12-11T08:00:38.699Z,5.41
2022-12-11T08:03:05.634Z,5.48
2022-12-11T08:05:32.594Z,5.42
2022-12-11T08:07:59.561Z,5.48
2022-12-11T08:10:26.527Z,5.49
2022-12-11T08:12:53.549Z,5.41
2022-12-11T08:15:21.793Z,5.37
2022-12-11T08:17:48.738Z,5.37
2022-12-11T08:20:15.761Z,5.46
2022-12-11T08:22:42.704Z,5.56
2022-12-11T08:25:10.206Z,5.67
2022-12-11T08:27:37.299Z,5.62
2022-12-11T08:30:05.869Z,5.53
2022-12-11T08:32:34.460Z,5.57
2022-12-11T08:35:01.955Z,5.63
2022-12-11T08:37:29.537Z,5.69
2022-12-11T08:39:56.491Z,5.77
2022-12-11T08:42:23.592Z,5.71
2022-12-11T08:44:51.654Z,5.54
2022-12-11T08:47:18.710Z,5.41
2022-12-11T08:49:46.998Z,5.33
2022-12-11T08:52:13.962Z,5.36
2022-12-11T08:54:41.074Z,5.43
2022-12-11T08:57:08.067Z,5.49
2022-12-11T08:59:35.231Z,5.55
2022-12-11T09:02:02.195Z,5.60
2022-12-11T09:04:29.168Z,5.69
2022-12-11T09:06:57.475Z,5.73
2022-12-11T09:09:24.444Z,5.73
2022-12-11T09:11:51.460Z,5.77
2022-12-11T09:14:18.752Z,5.84
2022-12-11T09:16:45.863Z,5.88
2022-12-11T09:19:14.843Z,5.84
2022-12-11T09:21:43.588Z,5.81
2022-12-11T09:24:13.533Z,5.81
2022-12-11T09:26:40.848Z,5.81
2022-12-11T09:29:08.430Z,5.84
2022-12-11T09:31:37.414Z,5.81
2022-12-11T09:34:08.680Z,5.72
2022-12-11T09:36:38.399Z,5.66
2022-12-11T09:39:08.258Z,5.54
2022-12-11T09:41:49.192Z,5.41
2022-12-11T09:44:24.448Z,5.48
2022-12-11T09:46:53.980Z,5.60
2022-12-11T09:49:32.119Z,5.67
2022-12-11T09:52:10.314Z,5.69
2022-12-11T09:54:44.105Z,5.73
2022-12-11T09:57:25.407Z,5.80
2022-12-11T10:00:09.484Z,5.88
2022-12-11T10:02:55.430Z,5.87
2022-12-11T10:05:36.976Z,5.86
2022-12-11T10:08:18.591Z,5.88
2022-12-11T10:10:57.820Z,5.91
2022-12-11T10:13:40.447Z,5.87
2022-12-11T10:16:20.473Z,5.82
2022-12-11T10:18:48.866Z,5.75
2022-12-11T10:21:18.225Z,5.72
2022-12-11T10:23:54.803Z,5.71
2022-12-11T10:26:23.161Z,5.67
2022-12-11T10:28:51.935Z,5.69
2022-12-11T10:31:26.293Z,5.73
2022-12-11T10:34:00.429Z,5.73
2022-12-11T10:36:31.569Z,5.77
2022-12-11T10:38:59.208Z,5.85
2022-12-11T10:41:39.062Z,5.97
2022-12-11T10:44:19.263Z,6.04
2022-12-11T10:46:47.387Z,6.10
2022-12-11T10:49:28.024Z,6.12
2022-12-11T10:51:55.838Z,6.18
2022-12-11T10:54:38.097Z,6.12
2022-12-11T10:57:10.051Z,6.01
2022-12-11T10:59:45.397Z,5.93
2022-12-11T11:02:24.596Z,5.84
2022-12-11T11:04:53.376Z,5.86
2022-12-11T11:07:24.002Z,5.95
2022-12-11T11:10:02.709Z,5.99
2022-12-11T11:12:29.647Z,5.93
2022-12-11T11:15:04.444Z,5.95
2022-12-11T11:17:35.759Z,6.00
2022-12-11T11:20:14.535Z,6.08
2022-12-11T11:22:46.471Z,6.19
2022-12-11T11:25:21.393Z,6.21
2022-12-11T11:27:57.989Z,6.24
2022-12-11T11:30:30.168Z,6.25
2022-12-11T11:33:02.303Z,6.27
2022-12-11T11:35:31.684Z,6.36
2022-12-11T11:38:05.685Z,6.43
2022-12-11T11:40:42.188Z,6.49
2022-12-11T11:43:23.938Z,6.48
2022-12-11T11:46:01.978Z,6.46
2022-12-11T11:48:40.175Z,6.45
2022-12-11T11:51:15.957Z,6.40
2022-12-11T11:53:49.425Z,6.35
2022-12-11T11:56:23.607Z,6.27
2022-12-11T11:59:02.975Z,6.29
2022-12-11T12:01:34.735Z,6.35
2022-12-11T12:04:04.755Z,6.41
2022-12-11T12:06:51.102Z,6.42
2022-12-11T12:09:35.591Z,6.47
2022-12-11T12:12:20.953Z,6.49
2022-12-11T12:15:13.964Z,6.48
2022-12-11T12:17:55.728Z,6.40
2022-12-11T12:20:46.050Z,6.30
2022-12-11T12:23:52.498Z,6.27
2022-12-11T12:26:29.058Z,6.32
2022-12-11T12:29:17.593Z,6.30
2022-12-11T12:32:02.503Z,6.32
2022-12-11T12:34:53.996Z,6.32
2022-12-11T12:37:45.771Z,6.29
2022-12-11T12:40:23.168Z,6.42
2022-12-11T12:43:04.376Z,6.48
2022-12-11T12:45:46.519Z,6.49
2022-12-11T12:48:13.969Z,6.46
2022-12-11T12:50:48.122Z,6.47
2022-12-11T12:53:20.347Z,6.50
2022-12-11T12:55:49.669Z,6.54
2022-12-11T12:58:41.233Z,6.57
2022-12-11T13:01:14.923Z,6.62
2022-12-11T13:03:55.608Z,6.65
2022-12-11T13:06:35.596Z,6.66
2022-12-11T13:09:21.202Z,6.71
2022-12-11T13:11:54.920Z,6.70
2022-12-11T13:14:31.550Z,6.73
2022-12-11T13:17:24.267Z,6.77
2022-12-11T13:20:10.764Z,6.87
2022-12-11T13:22:50.805Z,6.92
2022-12-11T13:25:24.439Z,6.93
2022-12-11T13:27:51.885Z,6.90
2022-12-11T13:30:26.488Z,6.80
2022-12-11T13:33:04.106Z,6.76
2022-12-11T13:35:34.463Z,6.72
2022-12-11T13:38:16.720Z,6.68
2022-12-11T13:40:49.669Z,6.68
2022-12-11T13:43:21.561Z,6.69
2022-12-11T13:45:52.077Z,6.63
2022-12-11T13:48:26.834Z,6.55
2022-12-11T13:50:57.564Z,6.53
2022-12-11T13:53:26.257Z,6.52
2022-12-11T13:55:59.679Z,6.53
2022-12-11T13:58:28.504Z,6.54
2022-12-11T14:01:06.390Z,6.55
2022-12-11T14:03:35.012Z,6.66
2022-12-11T14:06:03.627Z,6.75
2022-12-11T14:08:37.250Z,6.78
2022-12-11T14:11:05.891Z,6.77
2022-12-11T14:13:37.582Z,6.77
2022-12-11T14:16:07.634Z,6.83
2022-12-11T14:18:36.791Z,6.92
2022-12-11T14:21:06.359Z,6.99
2022-12-11T14:23:37.380Z,7.07
2022-12-11T14:26:21.055Z,7.11
2022-12-11T14:28:48.335Z,7.16
2022-12-11T14:31:25.193Z,7.13
2022-12-11T14:34:03.436Z,7.14
2022-12-11T14:36:33.070Z,7.15
2022-12-11T14:39:06.904Z,7.13
2022-12-11T14:41:45.734Z,7.02
2022-12-11T14:44:16.796Z,7.01
2022-12-11T14:46:49.076Z,6.98
2022-12-11T14:49:24.831Z,6.94
2022-12-11T14:51:56.251Z,7.30
2022-12-11T14:54:32.238Z,7.18
2022-12-11T14:57:06.115Z,7.16
2022-12-11T14:59:44.467Z,7.14
2022-12-11T15:02:26.071Z,7.10
2022-12-11T15:05:12.286Z,7.12
2022-12-11T15:07:41.441Z,7.19
2022-12-11T15:10:31.358Z,7.21
2022-12-11T15:12:59.423Z,7.31
2022-12-11T15:15:28.491Z,7.37
2022-12-11T15:17:56.010Z,7.45
2022-12-11T15:20:28.431Z,7.51
2022-12-11T15:23:01.807Z,7.49
2022-12-11T15:25:30.849Z,7.53
2022-12-11T15:28:00.520Z,7.57
2022-12-11T15:30:36.383Z,7.62
2022-12-11T15:33:21.952Z,8.06
2022-12-11T15:36:02.937Z,7.92
2022-12-11T15:38:37.310Z,7.83
2022-12-11T15:41:12.931Z,7.71
2022-12-11T15:43:40.386Z,7.64
2022-12-11T15:46:07.579Z,7.60
2022-12-11T15:48:34.578Z,7.53
2022-12-11T15:51:01.600Z,7.41
2022-12-11T15:53:30.073Z,7.32
2022-12-11T15:56:16.565Z,7.60
2022-12-11T15:58:54.552Z,7.36
2022-12-11T16:01:21.650Z,7.14
2022-12-11T16:03:50.314Z,7.07
2022-12-11T16:06:23.789Z,6.98
2022-12-11T16:08:50.982Z,6.94
2022-12-11T16:11:19.296Z,6.94
2022-12-11T16:13:46.255Z,6.93
2022-12-11T16:16:13.267Z,6.83
2022-12-11T16:18:40.334Z,6.78
2022-12-11T16:21:07.581Z,6.80
2022-12-11T16:23:36.098Z,6.83
2022-12-11T16:26:07.545Z,6.86
2022-12-11T16:28:35.923Z,6.89
2022-12-11T16:31:03.542Z,6.83
2022-12-11T16:33:30.556Z,6.96
2022-12-11T16:35:59.104Z,6.82
2022-12-11T16:38:26.152Z,6.73
2022-12-11T16:41:00.652Z,6.63
2022-12-11T16:43:27.665Z,6.70
2022-12-11T16:45:56.233Z,6.50
2022-12-11T16:48:23.330Z,6.39
2022-12-11T16:50:53.608Z,6.30
2022-12-11T16:53:20.826Z,6.22
2022-12-11T16:55:47.859Z,6.21
2022-12-11T16:58:19.783Z,6.21
2022-12-11T17:00:47.907Z,6.25
2022-12-11T17:03:16.844Z,6.33
2022-12-11T17:05:48.046Z,6.42
2022-12-11T17:08:15.785Z,6.51
2022-12-11T17:10:43.006Z,6.58
2022-12-11T17:13:09.999Z,6.60
2022-12-11T17:15:41.035Z,6.61
2022-12-11T17:18:08.670Z,6.67
2022-12-11T17:20:40.534Z,6.77
2022-12-11T17:23:09.908Z,6.86
2022-12-11T17:25:41.053Z,6.79
2022-12-11T17:28:08.348Z,6.69
2022-12-11T17:30:44.165Z,6.58
2022-12-11T17:33:26.640Z,6.50
2022-12-11T17:36:07.292Z,6.48
2022-12-11T17:38:34.969Z,6.52
2022-12-11T17:41:06.412Z,6.56
2022-12-11T17:43:34.434Z,6.60
2022-12-11T17:46:01.680Z,6.63
2022-12-11T17:48:30.900Z,6.66
2022-12-11T17:51:04.534Z,6.61
2022-12-11T17:53:35.209Z,6.51
2022-12-11T17:56:08.081Z,6.40
2022-12-11T17:58:36.283Z,6.26
2022-12-11T18:01:13.160Z,6.14
2022-12-11T18:03:41.308Z,6.06
2022-12-11T18:06:23.351Z,5.99
2022-12-11T18:09:28.289Z,5.78
2022-12-11T18:12:06.247Z,5.61
2022-12-11T18:14:33.992Z,5.52
2022-12-11T18:17:20.679Z,5.40
2022-12-11T18:19:47.741Z,5.35
2022-12-11T18:22:25.502Z,5.31
2022-12-11T18:24:58.284Z,5.27
2022-12-11T18:27:25.450Z,5.26
2022-12-11T18:30:01.976Z,5.26
2022-12-11T18:32:28.905Z,5.25
2022-12-11T18:35:17.389Z,5.24
2022-12-11T18:37:46.152Z,5.30
2022-12-11T18:40:28.054Z,5.33
2022-12-11T18:42:56.221Z,5.38
2022-12-11T18:45:31.149Z,5.40
2022-12-11T18:48:08.130Z,5.45
2022-12-11T18:50:38.357Z,5.51
2022-12-11T18:53:06.631Z,5.54
2022-12-11T18:55:38.707Z,5.57
2022-12-11T18:58:05.719Z,5.61
2022-12-11T19:00:32.707Z,5.62
2022-12-11T19:02:59.676Z,5.64
2022-12-11T19:05:26.678Z,5.67
2022-12-11T19:07:53.696Z,5.69
2022-12-11T19:10:22.074Z,5.71
2022-12-11T19:12:49.299Z,5.73
2022-12-11T19:15:22.146Z,5.76
2022-12-11T19:17:50.629Z,5.76
2022-12-11T19:20:48.697Z,5.76
2022-12-11T19:23:05.907Z,5.76
2022-12-11T19:25:34.558Z,5.76
2022-12-11T19:28:01.750Z,5.76
2022-12-11T19:30:28.907Z,5.80
2022-12-11T19:32:57.442Z,5.83
2022-12-11T19:35:24.462Z,5.88
2022-12-11T19:37:51.430Z,5.91
2022-12-11T19:40:19.338Z,5.94
2022-12-11T19:42:47.625Z,5.93
2022-12-11T19:45:14.761Z,5.93
2022-12-11T19:47:41.992Z,5.92
2022-12-11T19:50:09.787Z,5.92
2022-12-11T19:52:39.223Z,5.90
2022-12-11T19:55:13.374Z,5.87
2022-12-11T19:57:40.857Z,5.87
2022-12-11T20:00:10.880Z,5.88
2022-12-11T20:02:37.993Z,5.90
2022-12-11T20:05:05.981Z,5.94
2022-12-11T20:07:32.923Z,5.94
2022-12-11T20:10:00.342Z,5.92
2022-12-11T20:12:28.417Z,5.90
2022-12-11T20:14:55.375Z,5.89
2022-12-11T20:17:24.074Z,5.85
2022-12-11T20:19:51.341Z,5.81
2022-12-11T20:22:18.324Z,5.80
2022-12-11T20:24:45.600Z,5.77
2022-12-11T20:27:12.620Z,5.75
2022-12-11T20:29:39.884Z,5.74
2022-12-11T20:32:07.342Z,5.74
2022-12-11T20:34:35.758Z,5.73
2022-12-11T20:37:02.854Z,5.71
2022-12-11T20:39:32.852Z,5.70
2022-12-11T20:42:01.043Z,5.69
2022-12-11T20:44:27.969Z,5.67
2022-12-11T20:46:55.038Z,5.60
2022-12-11T20:49:22.066Z,5.55
2022-12-11T20:51:50.425Z,5.51
2022-12-11T20:54:17.414Z,5.46
2022-12-11T20:56:44.494Z,5.45
2022-12-11T20:59:11.707Z,5.41
2022-12-11T21:01:40.111Z,5.36
2022-12-11T21:04:07.052Z,5.31
2022-12-11T21:06:36.630Z,5.30
2022-12-11T21:09:08.422Z,5.30
2022-12-11T21:11:35.650Z,5.30
2022-12-11T21:14:02.631Z,5.30
2022-12-11T21:16:29.848Z,5.29
2022-12-11T21:18:58.690Z,5.24
2022-12-11T21:21:25.842Z,5.21
2022-12-11T21:23:52.856Z,5.18
2022-12-11T21:26:21.442Z,5.17
2022-12-11T21:28:48.471Z,5.17
2022-12-11T21:31:18.455Z,5.17
2022-12-11T21:33:46.682Z,5.15
2022-12-11T21:36:15.145Z,5.13
2022-12-11T21:38:44.041Z,5.12
2022-12-11T21:41:14.258Z,5.11
2022-12-11T21:44:14.613Z,5.11
2022-12-11T21:46:31.269Z,5.08
2022-12-11T21:48:58.611Z,5.07
2022-12-11T21:51:35.676Z,5.10
2022-12-11T21:54:06.445Z,5.12
2022-12-11T21:56:33.586Z,5.13
2022-12-11T21:59:02.090Z,5.10
2022-12-11T22:01:35.214Z,5.08
2022-12-11T22:04:04.859Z,5.07
2022-12-11T22:06:32.303Z,5.08
2022-12-11T22:08:59.338Z,5.11
2022-12-11T22:11:30.962Z,5.15
2022-12-11T22:13:58.262Z,5.19
2022-12-11T22:16:26.751Z,5.22
2022-12-11T22:18:53.944Z,5.23
2022-12-11T22:21:20.921Z,5.25
2022-12-11T22:23:48.145Z,5.28
2022-12-11T22:26:18.613Z,5.30
2022-12-11T22:28:45.604Z,5.30
2022-12-11T22:31:15.001Z,5.27
2022-12-11T22:33:43.493Z,5.25
2022-12-11T22:36:11.519Z,5.22
2022-12-11T22:38:39.370Z,5.20
2022-12-11T22:41:11.134Z,5.20
2022-12-11T22:43:38.132Z,5.23
2022-12-11T22:46:05.204Z,5.25
2022-12-11T22:48:32.290Z,5.26
2022-12-11T22:51:05.464Z,5.25
2022-12-11T22:53:32.373Z,5.25
2022-12-11T22:55:59.343Z,5.31
2022-12-11T22:58:26.289Z,5.32
2022-12-11T23:00:53.287Z,5.33
2022-12-11T23:03:20.247Z,5.32
2022-12-11T23:05:47.190Z,5.29
2022-12-11T23:08:15.642Z,5.25
2022-12-11T23:10:42.714Z,5.17
2022-12-11T23:13:09.662Z,5.07
2022-12-11T23:15:36.906Z,4.97
2022-12-11T23:18:04.325Z,4.87
2022-12-11T23:20:31.312Z,4.81
2022-12-11T23:22:58.333Z,4.75
2022-12-11T23:25:27.898Z,4.68
2022-12-11T23:27:55.171Z,4.60
2022-12-11T23:30:22.278Z,4.57
2022-12-11T23:32:49.269Z,4.55
2022-12-11T23:35:16.445Z,4.54
2022-12-11T23:37:43.393Z,4.53
2022-12-11T23:40:13.819Z,4.57
2022-12-11T23:42:42.058Z,4.62
2022-12-11T23:45:09.927Z,4.71
2022-12-11T23:47:37.046Z,4.84
2022-12-11T23:50:05.144Z,4.97
2022-12-11T23:52:32.084Z,5.09
2022-12-11T23:54:59.055Z,5.24
2022-12-11T23:57:25.984Z,5.36
2022-12-11T23:59:54.256Z,5.43
